Time;durP1;ratioP1;P1;durP2;ratioP2;P2;SDS_P1;SDS_P2;PMS_P1;PMS_P2;Temp;Humidity;BMP_temperature;BMP_pressure;BME280_temperature;BME280_humidity;BME280_pressure;Samples;Min_cycle;Max_cycle;Signal;HPM_P1;HPM_P2
2022/03/26 00:00:22;;;;;;;;;;;;;;;;;;1055294;28;1282;-67
2022/03/26 00:01:12;;;;;;;;;;;;;;;;;;1056363;28;1095;-68
2022/03/26 00:02:03;;;;;;;;;;;;;;;;;;1056320;28;1153;-68
2022/03/26 00:02:53;;;;;;;;;;;;;;;;;;1056279;28;661;-68
2022/03/26 00:03:43;;;;;;;;;;;;;;;;;;1057152;28;672;-68
2022/03/26 00:04:34;;;;;;;;;;;;;;;;;;1056854;28;672;-68
2022/03/26 00:05:24;;;;;;;;;;;;;;;;;;1056472;28;744;-68
2022/03/26 00:06:15;;;;;;;;;;;;;;;;;;1056324;28;645;-69
2022/03/26 00:07:05;;;;;;;;;;;;;;;;;;1056229;28;1981;-68
2022/03/26 00:07:55;;;;;;;;;;;;;;;;;;1057177;27;1227;-68
2022/03/26 00:08:48;;;;;;;;;;;;;;;;;;1059976;27;590;-68
2022/03/26 00:09:39;;;;;;;;;;;;;;;;;;1060537;27;653;-68
2022/03/26 00:10:29;;;;;;;;;;;;;;;;;;1061361;27;692;-68
2022/03/26 00:11:20;;;;;;;;;;;;;;;;;;1057770;28;673;-68
2022/03/26 00:12:10;;;;;;;;;;;;;;;;;;1056644;28;677;-68
2022/03/26 00:13:00;;;;;;;;;;;;;;;;;;1060618;27;713;-68
2022/03/26 00:13:51;;;;;;;;;;;;;;;;;;1059896;27;598;-68
2022/03/26 00:14:41;;;;;;;;;;;;;;;;;;1061868;27;653;-68
2022/03/26 00:15:32;;;;;;;;;;;;;;;;;;1059787;27;641;-68
2022/03/26 00:16:22;;;;;;;;;;;;;;;;;;1057758;28;625;-68
2022/03/26 00:17:12;;;;;;;;;;;;;;;;;;1056792;28;668;-68
2022/03/26 00:18:03;;;;;;;;;;;;;;;;;;1060553;27;659;-68
2022/03/26 00:18:53;;;;;;;;;;;;;;;;;;1060169;27;618;-68
2022/03/26 00:19:44;;;;;;;;;;;;;;;;;;1061553;27;660;-68
2022/03/26 00:20:34;;;;;;;;;;;;;;;;;;1060073;27;626;-68
2022/03/26 00:21:25;;;;;;;;;;;;;;;;;;1061871;27;665;-68
2022/03/26 00:22:15;;;;;;;;;;;;;;;;;;1061788;27;649;-68
2022/03/26 00:23:05;;;;;;;;;;;;;;;;;;1061816;27;601;-69
2022/03/26 00:23:56;;;;;;;;;;;;;;;;;;1059681;27;691;-68
2022/03/26 00:24:46;;;;;;;;;;;;;;;;;;1061642;27;681;-68
2022/03/26 00:25:36;;;;;;;;;;;;;;;;;;1060246;27;618;-68
2022/03/26 00:26:27;;;;;;;;;;;;;;;;;;1059877;27;697;-69
2022/03/26 00:27:17;;;;;;;;;;;;;;;;;;1060049;27;1878;-68
2022/03/26 00:28:08;;;;;;;;;;;;;;;;;;1059733;27;661;-68
2022/03/26 00:28:59;;;;;;;;;;;;;;;;;;1061047;27;630;-68
2022/03/26 00:29:49;;;;;;;;;;;;;;;;;;1061293;27;657;-68
2022/03/26 00:30:40;;;;;;;;;;;;;;;;;;1057699;28;613;-68
2022/03/26 00:31:33;;;;;;;;;;;;;;;;;;1056665;28;685;-68
2022/03/26 00:32:23;;;;;;;;;;;;;;;;;;1060512;27;680;-68
2022/03/26 00:33:13;;;;;;;;;;;;;;;;;;1060270;27;661;-68
2022/03/26 00:34:04;;;;;;;;;;;;;;;;;;1059808;27;662;-68
2022/03/26 00:34:55;;;;;;;;;;;;;;;;;;1060996;27;645;-68
2022/03/26 00:35:46;;;;;;;;;;;;;;;;;;1061656;27;661;-69
2022/03/26 00:36:36;;;;;;;;;;;;;;;;;;1061055;27;663;-68
2022/03/26 00:37:26;;;;;;;;;;;;;;;;;;1060156;27;659;-68
2022/03/26 00:38:17;;;;;;;;;;;;;;;;;;1059711;27;653;-68
2022/03/26 00:39:07;;;;;;;;;;;;;;;;;;1061700;27;689;-68
2022/03/26 00:39:58;;;;;;;;;;;;;;;;;;1059507;27;909;-68
2022/03/26 00:40:48;;;;;;;;;;;;;;;;;;1059857;27;598;-68
2022/03/26 00:41:38;;;;;;;;;;;;;;;;;;1060149;27;689;-69
2022/03/26 00:42:29;;;;;;;;;;;;;;;;;;1061526;27;598;-69
2022/03/26 00:43:19;;;;;;;;;;;;;;;;;;1060143;27;684;-68
2022/03/26 00:44:10;;;;;;;;;;;;;;;;;;1061775;27;640;-70
2022/03/26 00:45:00;;;;;;;;;;;;;;;;;;1057642;28;618;-69
2022/03/26 00:45:50;;;;;;;;;;;;;;;;;;1056103;28;633;-68
2022/03/26 00:46:41;;;;;;;;;;;;;;;;;;1060115;27;691;-69
2022/03/26 00:47:31;;;;;;;;;;;;;;;;;;1059839;27;1906;-68
2022/03/26 00:48:23;;;;;;;;;;;;;;;;;;1060168;27;638;-68
2022/03/26 00:49:13;;;;;;;;;;;;;;;;;;1061122;27;683;-68
2022/03/26 00:50:04;;;;;;;;;;;;;;;;;;1059777;27;931;-69
2022/03/26 00:50:54;;;;;;;;;;;;;;;;;;1059833;27;619;-68
2022/03/26 00:51:45;;;;;;;;;;;;;;;;;;1060249;27;708;-70
2022/03/26 00:52:35;;;;;;;;;;;;;;;;;;1059801;27;669;-69
2022/03/26 00:53:26;;;;;;;;;;;;;;;;;;1060136;27;693;-69
2022/03/26 00:54:17;;;;;;;;;;;;;;;;;;1056608;28;708;-68
2022/03/26 00:55:07;;;;;;;;;;;;;;;;;;1056389;28;661;-69
2022/03/26 00:55:57;;;;;;;;;;;;;;;;;;1060465;27;685;-69
2022/03/26 00:56:48;;;;;;;;;;;;;;;;;;1061124;27;684;-69
2022/03/26 00:57:38;;;;;;;;;;;;;;;;;;1059772;27;1011;-69
2022/03/26 00:58:28;;;;;;;;;;;;;;;;;;1061699;27;653;-69
2022/03/26 00:59:19;;;;;;;;;;;;;;;;;;1061499;27;645;-69
2022/03/26 01:00:09;;;;;;;;;;;;;;;;;;1059953;27;689;-69
2022/03/26 01:01:00;;;;;;;;;;;;;;;;;;1060915;27;641;-69
2022/03/26 01:01:50;;;;;;;;;;;;;;;;;;1059767;27;681;-69
2022/03/26 01:02:40;;;;;;;;;;;;;;;;;;1061609;27;696;-69
2022/03/26 01:03:31;;;;;;;;;;;;;;;;;;1061422;27;654;-69
2022/03/26 01:04:21;;;;;;;;;;;;;;;;;;1059955;27;720;-69
2022/03/26 01:05:12;;;;;;;;;;;;;;;;;;1059537;27;972;-68
2022/03/26 01:06:02;;;;;;;;;;;;;;;;;;1059781;27;622;-69
2022/03/26 01:06:52;;;;;;;;;;;;;;;;;;1060171;27;822;-70
2022/03/26 01:07:43;;;;;;;;;;;;;;;;;;1059514;27;642;-69
2022/03/26 01:08:33;;;;;;;;;;;;;;;;;;1053264;28;648;-69
2022/03/26 01:09:24;;;;;;;;;;;;;;;;;;1052911;28;663;-69
2022/03/26 01:10:14;;;;;;;;;;;;;;;;;;1052106;28;685;-70
2022/03/26 01:11:04;;;;;;;;;;;;;;;;;;1053194;28;591;-70
2022/03/26 01:11:55;;;;;;;;;;;;;;;;;;1052613;28;642;-70
2022/03/26 01:12:45;;;;;;;;;;;;;;;;;;1052182;28;677;-69
2022/03/26 01:13:38;;;;;;;;;;;;;;;;;;1052955;28;578;-70
2022/03/26 01:14:28;;;;;;;;;;;;;;;;;;1052586;28;696;-70
2022/03/26 01:15:19;;;;;;;;;;;;;;;;;;1052439;28;634;-69
2022/03/26 01:16:09;;;;;;;;;;;;;;;;;;1052506;28;653;-70
2022/03/26 01:17:00;;;;;;;;;;;;;;;;;;1052379;28;689;-70
2022/03/26 01:17:50;;;;;;;;;;;;;;;;;;1052532;28;624;-69
2022/03/26 01:18:41;;;;;;;;;;;;;;;;;;1052851;28;634;-70
2022/03/26 01:19:31;;;;;;;;;;;;;;;;;;1052995;28;618;-70
2022/03/26 01:20:22;;;;;;;;;;;;;;;;;;1053041;28;649;-70
2022/03/26 01:21:12;;;;;;;;;;;;;;;;;;1052462;28;694;-70
2022/03/26 01:22:02;;;;;;;;;;;;;;;;;;1052537;28;646;-70
2022/03/26 01:22:53;;;;;;;;;;;;;;;;;;1052323;28;666;-69
2022/03/26 01:23:44;;;;;;;;;;;;;;;;;;1053070;28;712;-69
2022/03/26 01:24:35;;;;;;;;;;;;;;;;;;1052422;28;669;-69
2022/03/26 01:25:25;;;;;;;;;;;;;;;;;;1052555;28;673;-69
2022/03/26 01:26:16;;;;;;;;;;;;;;;;;;1052619;28;675;-70
2022/03/26 01:27:07;;;;;;;;;;;;;;;;;;1052404;28;1894;-70
2022/03/26 01:27:57;;;;;;;;;;;;;;;;;;1052433;28;685;-70
2022/03/26 01:28:47;;;;;;;;;;;;;;;;;;1052667;28;607;-69
2022/03/26 01:29:38;;;;;;;;;;;;;;;;;;1052664;28;684;-69
2022/03/26 01:30:29;;;;;;;;;;;;;;;;;;1051961;28;677;-71
2022/03/26 01:31:22;;;;;;;;;;;;;;;;;;1053054;28;696;-70
2022/03/26 01:32:12;;;;;;;;;;;;;;;;;;1052482;28;625;-70
2022/03/26 01:33:03;;;;;;;;;;;;;;;;;;1052612;28;697;-71
2022/03/26 01:33:53;;;;;;;;;;;;;;;;;;1052367;28;649;-71
2022/03/26 01:34:43;;;;;;;;;;;;;;;;;;1052526;28;665;-70
2022/03/26 01:35:34;;;;;;;;;;;;;;;;;;1052361;28;648;-70
2022/03/26 01:36:24;;;;;;;;;;;;;;;;;;1052479;28;574;-70
2022/03/26 01:37:16;;;;;;;;;;;;;;;;;;1052712;28;685;-70
2022/03/26 01:38:07;;;;;;;;;;;;;;;;;;1052563;28;650;-70
2022/03/26 01:38:57;;;;;;;;;;;;;;;;;;1052609;28;642;-70
2022/03/26 01:39:47;;;;;;;;;;;;;;;;;;1052181;28;696;-70
2022/03/26 01:40:38;;;;;;;;;;;;;;;;;;1047881;28;709;-70
2022/03/26 01:41:28;;;;;;;;;;;;;;;;;;1048024;28;651;-70
2022/03/26 01:42:19;;;;;;;;;;;;;;;;;;1053064;28;661;-70
2022/03/26 01:43:09;;;;;;;;;;;;;;;;;;1052302;28;664;-70
2022/03/26 01:44:00;;;;;;;;;;;;;;;;;;1053121;28;777;-70
2022/03/26 01:44:50;;;;;;;;;;;;;;;;;;1052308;28;657;-70
2022/03/26 01:45:40;;;;;;;;;;;;;;;;;;1052588;28;682;-71
2022/03/26 01:46:31;;;;;;;;;;;;;;;;;;1052309;28;646;-71
2022/03/26 01:47:21;;;;;;;;;;;;;;;;;;1052047;28;1963;-71
2022/03/26 01:48:11;;;;;;;;;;;;;;;;;;1052552;28;661;-70
2022/03/26 01:49:02;;;;;;;;;;;;;;;;;;1052238;28;649;-70
2022/03/26 01:49:52;;;;;;;;;;;;;;;;;;1052415;28;661;-71
2022/03/26 01:50:43;;;;;;;;;;;;;;;;;;1052903;28;641;-71
2022/03/26 01:51:33;;;;;;;;;;;;;;;;;;1052307;28;641;-70
2022/03/26 01:52:24;;;;;;;;;;;;;;;;;;1052199;28;665;-69
2022/03/26 01:53:14;;;;;;;;;;;;;;;;;;1052277;28;610;-69
2022/03/26 01:54:04;;;;;;;;;;;;;;;;;;1052955;28;661;-69
2022/03/26 01:54:55;;;;;;;;;;;;;;;;;;1052898;28;605;-69
2022/03/26 01:55:45;;;;;;;;;;;;;;;;;;1052827;28;606;-68
2022/03/26 01:56:36;;;;;;;;;;;;;;;;;;1052506;28;696;-69
2022/03/26 01:57:26;;;;;;;;;;;;;;;;;;1052534;28;774;-70
2022/03/26 01:58:17;;;;;;;;;;;;;;;;;;1052819;28;686;-67
2022/03/26 01:59:08;;;;;;;;;;;;;;;;;;1052454;28;693;-67
2022/03/26 01:59:58;;;;;;;;;;;;;;;;;;1052290;28;622;-67
2022/03/26 02:00:48;;;;;;;;;;;;;;;;;;1052499;28;708;-67
2022/03/26 02:01:39;;;;;;;;;;;;;;;;;;1052173;28;587;-68
2022/03/26 02:02:29;;;;;;;;;;;;;;;;;;1052347;28;638;-68
2022/03/26 02:03:20;;;;;;;;;;;;;;;;;;1053079;28;629;-68
2022/03/26 02:04:11;;;;;;;;;;;;;;;;;;1052638;28;655;-69
2022/03/26 02:05:01;;;;;;;;;;;;;;;;;;1052620;28;684;-69
2022/03/26 02:05:52;;;;;;;;;;;;;;;;;;1052940;28;701;-69
2022/03/26 02:06:43;;;;;;;;;;;;;;;;;;1052559;28;680;-68
2022/03/26 02:07:33;;;;;;;;;;;;;;;;;;1052298;28;1894;-68
2022/03/26 02:08:24;;;;;;;;;;;;;;;;;;1056737;28;739;-68
2022/03/26 02:09:14;;;;;;;;;;;;;;;;;;1052916;28;712;-68
2022/03/26 02:10:04;;;;;;;;;;;;;;;;;;1052968;28;671;-68
2022/03/26 02:10:55;;;;;;;;;;;;;;;;;;1057159;28;697;-68
2022/03/26 02:11:46;;;;;;;;;;;;;;;;;;1056059;28;696;-68
2022/03/26 02:12:36;;;;;;;;;;;;;;;;;;1056932;28;661;-68
2022/03/26 02:13:27;;;;;;;;;;;;;;;;;;1056643;28;617;-69
2022/03/26 02:14:17;;;;;;;;;;;;;;;;;;1056768;28;618;-69
2022/03/26 02:15:08;;;;;;;;;;;;;;;;;;1056985;28;653;-69
2022/03/26 02:15:59;;;;;;;;;;;;;;;;;;1056921;28;645;-68
2022/03/26 02:16:49;;;;;;;;;;;;;;;;;;1056728;28;755;-68
2022/03/26 02:17:39;;;;;;;;;;;;;;;;;;1052951;28;762;-68
2022/03/26 02:18:30;;;;;;;;;;;;;;;;;;1052693;28;610;-68
2022/03/26 02:19:20;;;;;;;;;;;;;;;;;;1057243;28;634;-68
2022/03/26 02:20:11;;;;;;;;;;;;;;;;;;1057062;28;672;-68
2022/03/26 02:21:01;;;;;;;;;;;;;;;;;;1056390;28;654;-69
2022/03/26 02:21:52;;;;;;;;;;;;;;;;;;1052958;28;657;-68
2022/03/26 02:22:42;;;;;;;;;;;;;;;;;;1052831;28;659;-68
2022/03/26 02:23:33;;;;;;;;;;;;;;;;;;1053084;28;685;-69
2022/03/26 02:24:23;;;;;;;;;;;;;;;;;;1057848;28;665;-69
2022/03/26 02:25:13;;;;;;;;;;;;;;;;;;1056882;28;1178;-69
2022/03/26 02:26:04;;;;;;;;;;;;;;;;;;1056645;28;674;-69
2022/03/26 02:26:54;;;;;;;;;;;;;;;;;;1052757;28;614;-69
2022/03/26 02:27:45;;;;;;;;;;;;;;;;;;1052965;28;657;-69
2022/03/26 02:28:36;;;;;;;;;;;;;;;;;;1057207;28;605;-70
2022/03/26 02:29:28;;;;;;;;;;;;;;;;;;1056634;28;610;-69
2022/03/26 02:30:18;;;;;;;;;;;;;;;;;;1056755;28;673;-69
2022/03/26 02:31:09;;;;;;;;;;;;;;;;;;1056830;28;719;-69
2022/03/26 02:31:59;;;;;;;;;;;;;;;;;;1056730;28;586;-69
2022/03/26 02:32:50;;;;;;;;;;;;;;;;;;1056446;28;945;-70
2022/03/26 02:33:40;;;;;;;;;;;;;;;;;;1056716;28;658;-68
2022/03/26 02:34:31;;;;;;;;;;;;;;;;;;1056944;28;661;-68
2022/03/26 02:35:21;;;;;;;;;;;;;;;;;;1052688;28;775;-67
2022/03/26 02:36:11;;;;;;;;;;;;;;;;;;1052870;28;879;-67
2022/03/26 02:37:02;;;;;;;;;;;;;;;;;;1052943;28;689;-67
2022/03/26 02:37:52;;;;;;;;;;;;;;;;;;1053438;28;677;-67
2022/03/26 02:38:43;;;;;;;;;;;;;;;;;;1057826;28;665;-68
2022/03/26 02:39:33;;;;;;;;;;;;;;;;;;1052741;28;654;-68
2022/03/26 02:40:23;;;;;;;;;;;;;;;;;;1052882;28;642;-68
2022/03/26 02:41:14;;;;;;;;;;;;;;;;;;1052832;28;662;-68
2022/03/26 02:42:04;;;;;;;;;;;;;;;;;;1057742;28;692;-68
2022/03/26 02:42:55;;;;;;;;;;;;;;;;;;1056836;28;689;-68
2022/03/26 02:43:45;;;;;;;;;;;;;;;;;;1056561;28;657;-68
2022/03/26 02:44:35;;;;;;;;;;;;;;;;;;1052768;28;673;-68
2022/03/26 02:45:28;;;;;;;;;;;;;;;;;;1052563;28;669;-68
2022/03/26 02:46:18;;;;;;;;;;;;;;;;;;1057235;28;661;-68
2022/03/26 02:47:09;;;;;;;;;;;;;;;;;;1056733;28;1902;-68
2022/03/26 02:47:59;;;;;;;;;;;;;;;;;;1056648;28;685;-68
2022/03/26 02:48:50;;;;;;;;;;;;;;;;;;1056843;28;685;-69
2022/03/26 02:49:40;;;;;;;;;;;;;;;;;;1056598;28;688;-69
2022/03/26 02:50:31;;;;;;;;;;;;;;;;;;1056827;28;708;-70
2022/03/26 02:51:21;;;;;;;;;;;;;;;;;;1055885;28;654;-69
2022/03/26 02:52:11;;;;;;;;;;;;;;;;;;1056769;28;590;-69
2022/03/26 02:53:02;;;;;;;;;;;;;;;;;;1056486;28;579;-70
2022/03/26 02:53:52;;;;;;;;;;;;;;;;;;1056646;28;678;-69
2022/03/26 02:54:43;;;;;;;;;;;;;;;;;;1056962;28;697;-69
2022/03/26 02:55:34;;;;;;;;;;;;;;;;;;1056631;28;673;-69
2022/03/26 02:56:24;;;;;;;;;;;;;;;;;;1056689;28;637;-70
2022/03/26 02:57:15;;;;;;;;;;;;;;;;;;1056320;28;626;-68
2022/03/26 02:58:05;;;;;;;;;;;;;;;;;;1056483;28;637;-68
2022/03/26 02:58:56;;;;;;;;;;;;;;;;;;1056819;28;605;-69
2022/03/26 02:59:46;;;;;;;;;;;;;;;;;;1056526;28;669;-68
2022/03/26 03:00:37;;;;;;;;;;;;;;;;;;1056940;28;689;-69
2022/03/26 03:01:28;;;;;;;;;;;;;;;;;;1056990;28;622;-68
2022/03/26 03:02:18;;;;;;;;;;;;;;;;;;1052736;28;670;-69
2022/03/26 03:03:09;;;;;;;;;;;;;;;;;;1052881;28;623;-68
2022/03/26 03:03:59;;;;;;;;;;;;;;;;;;1052648;28;634;-69
2022/03/26 03:04:50;;;;;;;;;;;;;;;;;;1052427;28;637;-68
2022/03/26 03:05:40;;;;;;;;;;;;;;;;;;1057666;28;590;-68
2022/03/26 03:06:30;;;;;;;;;;;;;;;;;;1056527;28;631;-69
2022/03/26 03:07:21;;;;;;;;;;;;;;;;;;1056795;28;1967;-69
2022/03/26 03:08:11;;;;;;;;;;;;;;;;;;1059306;27;1195;-69
2022/03/26 03:09:02;;;;;;;;;;;;;;;;;;1058108;28;719;-69
2022/03/26 03:09:52;;;;;;;;;;;;;;;;;;1056783;28;650;-68
2022/03/26 03:10:43;;;;;;;;;;;;;;;;;;1060900;27;649;-67
2022/03/26 03:11:33;;;;;;;;;;;;;;;;;;1060164;27;651;-67
2022/03/26 03:12:25;;;;;;;;;;;;;;;;;;1060388;27;736;-68
2022/03/26 03:13:21;;;;;;;;;;;;;;;;;;1061023;27;709;-68
2022/03/26 03:14:11;;;;;;;;;;;;;;;;;;1060642;27;669;-68
2022/03/26 03:15:02;;;;;;;;;;;;;;;;;;1061580;27;613;-68
2022/03/26 03:15:52;;;;;;;;;;;;;;;;;;1061354;27;649;-68
2022/03/26 03:16:42;;;;;;;;;;;;;;;;;;1061958;27;622;-68
2022/03/26 03:17:33;;;;;;;;;;;;;;;;;;1060542;27;661;-68
2022/03/26 03:18:23;;;;;;;;;;;;;;;;;;1060172;27;645;-70
2022/03/26 03:19:14;;;;;;;;;;;;;;;;;;1059982;27;684;-68
2022/03/26 03:20:04;;;;;;;;;;;;;;;;;;1059951;27;705;-68
2022/03/26 03:20:54;;;;;;;;;;;;;;;;;;1061910;27;621;-68
2022/03/26 03:21:45;;;;;;;;;;;;;;;;;;1059953;27;649;-68
2022/03/26 03:22:35;;;;;;;;;;;;;;;;;;1060255;27;640;-68
2022/03/26 03:23:26;;;;;;;;;;;;;;;;;;1062083;27;656;-68
2022/03/26 03:24:17;;;;;;;;;;;;;;;;;;1057964;28;704;-68
2022/03/26 03:25:07;;;;;;;;;;;;;;;;;;1056222;28;636;-68
2022/03/26 03:25:58;;;;;;;;;;;;;;;;;;1060977;27;634;-69
2022/03/26 03:26:48;;;;;;;;;;;;;;;;;;1061958;27;655;-68
2022/03/26 03:27:40;;;;;;;;;;;;;;;;;;1060202;27;1937;-69
2022/03/26 03:28:30;;;;;;;;;;;;;;;;;;1061406;27;656;-69
2022/03/26 03:29:21;;;;;;;;;;;;;;;;;;1060425;27;621;-69
2022/03/26 03:30:11;;;;;;;;;;;;;;;;;;1061998;27;613;-70
2022/03/26 03:31:02;;;;;;;;;;;;;;;;;;1060448;27;700;-70
2022/03/26 03:31:52;;;;;;;;;;;;;;;;;;1061909;27;620;-70
2022/03/26 03:32:43;;;;;;;;;;;;;;;;;;1061482;27;622;-70
2022/03/26 03:33:33;;;;;;;;;;;;;;;;;;1061353;27;653;-70
2022/03/26 03:34:24;;;;;;;;;;;;;;;;;;1060357;27;701;-70
2022/03/26 03:35:14;;;;;;;;;;;;;;;;;;1057379;28;652;-70
2022/03/26 03:36:04;;;;;;;;;;;;;;;;;;1060964;27;699;-70
2022/03/26 03:36:55;;;;;;;;;;;;;;;;;;1065538;27;674;-70
2022/03/26 03:37:45;;;;;;;;;;;;;;;;;;1056849;28;656;-70
2022/03/26 03:38:36;;;;;;;;;;;;;;;;;;1057994;28;675;-70
2022/03/26 03:39:26;;;;;;;;;;;;;;;;;;1062354;27;618;-70
2022/03/26 03:40:17;;;;;;;;;;;;;;;;;;1060123;27;637;-70
2022/03/26 03:41:09;;;;;;;;;;;;;;;;;;1060893;27;703;-70
2022/03/26 03:41:59;;;;;;;;;;;;;;;;;;1061149;27;669;-70
2022/03/26 03:42:50;;;;;;;;;;;;;;;;;;1060326;27;653;-70
2022/03/26 03:43:40;;;;;;;;;;;;;;;;;;1057214;28;676;-70
2022/03/26 03:44:30;;;;;;;;;;;;;;;;;;1056169;28;626;-70
2022/03/26 03:45:21;;;;;;;;;;;;;;;;;;1065297;27;654;-69
2022/03/26 03:46:11;;;;;;;;;;;;;;;;;;1064579;27;641;-70
2022/03/26 03:47:02;;;;;;;;;;;;;;;;;;1060957;27;1555;-69
2022/03/26 03:47:53;;;;;;;;;;;;;;;;;;1061371;27;897;-69
2022/03/26 03:48:43;;;;;;;;;;;;;;;;;;1057898;28;629;-69
2022/03/26 03:49:34;;;;;;;;;;;;;;;;;;1056254;28;669;-69
2022/03/26 03:50:24;;;;;;;;;;;;;;;;;;1060541;27;641;-70
2022/03/26 03:51:14;;;;;;;;;;;;;;;;;;1057875;28;690;-69
2022/03/26 03:52:05;;;;;;;;;;;;;;;;;;1056309;28;727;-69
2022/03/26 03:52:55;;;;;;;;;;;;;;;;;;1060592;27;673;-69
2022/03/26 03:53:46;;;;;;;;;;;;;;;;;;1061896;27;657;-69
2022/03/26 03:54:36;;;;;;;;;;;;;;;;;;1059966;27;652;-69
2022/03/26 03:55:28;;;;;;;;;;;;;;;;;;1061835;27;661;-69
2022/03/26 03:56:18;;;;;;;;;;;;;;;;;;1061109;27;637;-69
2022/03/26 03:57:09;;;;;;;;;;;;;;;;;;1060153;27;622;-71
2022/03/26 03:57:59;;;;;;;;;;;;;;;;;;1059896;27;594;-70
2022/03/26 03:58:49;;;;;;;;;;;;;;;;;;1061803;27;666;-71
2022/03/26 03:59:41;;;;;;;;;;;;;;;;;;1060394;27;659;-70
2022/03/26 04:00:31;;;;;;;;;;;;;;;;;;1060935;27;688;-71
2022/03/26 04:01:21;;;;;;;;;;;;;;;;;;1060048;27;690;-71
2022/03/26 04:02:12;;;;;;;;;;;;;;;;;;1060438;27;654;-71
2022/03/26 04:03:02;;;;;;;;;;;;;;;;;;1059990;27;660;-70
2022/03/26 04:03:53;;;;;;;;;;;;;;;;;;1060246;27;646;-70
2022/03/26 04:04:43;;;;;;;;;;;;;;;;;;1059794;27;638;-70
2022/03/26 04:05:34;;;;;;;;;;;;;;;;;;1060818;27;708;-71
2022/03/26 04:06:24;;;;;;;;;;;;;;;;;;1059960;27;700;-70
2022/03/26 04:07:15;;;;;;;;;;;;;;;;;;1060128;27;1886;-71
2022/03/26 04:08:05;;;;;;;;;;;;;;;;;;1057714;27;1202;-70
2022/03/26 04:08:55;;;;;;;;;;;;;;;;;;1056325;28;618;-71
2022/03/26 04:09:46;;;;;;;;;;;;;;;;;;1057010;28;671;-71
2022/03/26 04:10:36;;;;;;;;;;;;;;;;;;1052364;28;654;-71
2022/03/26 04:11:27;;;;;;;;;;;;;;;;;;1051914;28;680;-71
2022/03/26 04:12:17;;;;;;;;;;;;;;;;;;1052897;28;755;-70
2022/03/26 04:13:07;;;;;;;;;;;;;;;;;;1056371;28;694;-70
2022/03/26 04:13:58;;;;;;;;;;;;;;;;;;1057081;28;680;-71
2022/03/26 04:14:48;;;;;;;;;;;;;;;;;;1056772;28;618;-71
2022/03/26 04:15:39;;;;;;;;;;;;;;;;;;1056919;28;637;-71
2022/03/26 04:16:29;;;;;;;;;;;;;;;;;;1052990;28;680;-71
2022/03/26 04:17:20;;;;;;;;;;;;;;;;;;1051501;28;689;-71
2022/03/26 04:18:10;;;;;;;;;;;;;;;;;;1055513;28;646;-71
2022/03/26 04:19:01;;;;;;;;;;;;;;;;;;1057026;28;645;-71
2022/03/26 04:19:51;;;;;;;;;;;;;;;;;;1056850;28;637;-69
2022/03/26 04:20:41;;;;;;;;;;;;;;;;;;1056296;28;642;-70
2022/03/26 04:21:32;;;;;;;;;;;;;;;;;;1052422;28;661;-69
2022/03/26 04:22:22;;;;;;;;;;;;;;;;;;1051090;28;751;-68
2022/03/26 04:23:13;;;;;;;;;;;;;;;;;;1055674;28;615;-68
2022/03/26 04:24:03;;;;;;;;;;;;;;;;;;1056891;28;621;-69
2022/03/26 04:24:53;;;;;;;;;;;;;;;;;;1052293;28;654;-68
2022/03/26 04:25:44;;;;;;;;;;;;;;;;;;1051360;28;618;-68
2022/03/26 04:26:35;;;;;;;;;;;;;;;;;;1055565;28;653;-68
2022/03/26 04:27:25;;;;;;;;;;;;;;;;;;1056614;28;1894;-68
2022/03/26 04:28:15;;;;;;;;;;;;;;;;;;1056964;28;614;-69
2022/03/26 04:29:06;;;;;;;;;;;;;;;;;;1056586;28;651;-68
2022/03/26 04:29:56;;;;;;;;;;;;;;;;;;1056790;28;594;-68
2022/03/26 04:30:47;;;;;;;;;;;;;;;;;;1056918;28;657;-68
2022/03/26 04:31:37;;;;;;;;;;;;;;;;;;1051810;28;778;-69
2022/03/26 04:32:28;;;;;;;;;;;;;;;;;;1051358;28;631;-69
2022/03/26 04:33:18;;;;;;;;;;;;;;;;;;1055431;28;587;-69
2022/03/26 04:34:08;;;;;;;;;;;;;;;;;;1056928;28;622;-69
2022/03/26 04:34:59;;;;;;;;;;;;;;;;;;1056977;28;633;-69
2022/03/26 04:35:49;;;;;;;;;;;;;;;;;;1056707;28;646;-69
2022/03/26 04:36:40;;;;;;;;;;;;;;;;;;1056435;28;693;-69
2022/03/26 04:37:30;;;;;;;;;;;;;;;;;;1056727;28;661;-70
2022/03/26 04:38:20;;;;;;;;;;;;;;;;;;1052254;28;684;-69
2022/03/26 04:39:11;;;;;;;;;;;;;;;;;;1051869;28;642;-69
2022/03/26 04:40:01;;;;;;;;;;;;;;;;;;1055392;28;642;-69
2022/03/26 04:40:52;;;;;;;;;;;;;;;;;;1056854;28;654;-69
2022/03/26 04:41:42;;;;;;;;;;;;;;;;;;1055971;28;657;-70
2022/03/26 04:42:32;;;;;;;;;;;;;;;;;;1056754;28;657;-70
2022/03/26 04:43:23;;;;;;;;;;;;;;;;;;1056993;28;586;-70
2022/03/26 04:44:14;;;;;;;;;;;;;;;;;;1056861;28;661;-70
2022/03/26 04:45:04;;;;;;;;;;;;;;;;;;1056809;28;606;-70
2022/03/26 04:45:55;;;;;;;;;;;;;;;;;;1056891;28;669;-70
2022/03/26 04:46:45;;;;;;;;;;;;;;;;;;1056733;28;742;-70
2022/03/26 04:47:36;;;;;;;;;;;;;;;;;;1056766;28;1902;-70
2022/03/26 04:48:26;;;;;;;;;;;;;;;;;;1056894;28;646;-70
2022/03/26 04:49:16;;;;;;;;;;;;;;;;;;1052297;28;618;-70
2022/03/26 04:50:07;;;;;;;;;;;;;;;;;;1051341;28;626;-69
2022/03/26 04:50:57;;;;;;;;;;;;;;;;;;1057151;28;602;-69
2022/03/26 04:51:47;;;;;;;;;;;;;;;;;;1056691;28;710;-69
2022/03/26 04:52:38;;;;;;;;;;;;;;;;;;1056898;28;613;-70
2022/03/26 04:53:29;;;;;;;;;;;;;;;;;;1056824;28;724;-70
2022/03/26 04:54:19;;;;;;;;;;;;;;;;;;1056648;28;629;-70
2022/03/26 04:55:11;;;;;;;;;;;;;;;;;;1056855;28;675;-69
2022/03/26 04:56:01;;;;;;;;;;;;;;;;;;1056886;28;701;-70
2022/03/26 04:56:51;;;;;;;;;;;;;;;;;;1056662;28;619;-70
2022/03/26 04:57:42;;;;;;;;;;;;;;;;;;1056300;28;657;-68
2022/03/26 04:58:32;;;;;;;;;;;;;;;;;;1056621;28;716;-68
2022/03/26 04:59:23;;;;;;;;;;;;;;;;;;1056829;28;728;-69
2022/03/26 05:00:13;;;;;;;;;;;;;;;;;;1056617;28;623;-69
2022/03/26 05:01:04;;;;;;;;;;;;;;;;;;1056715;28;648;-69
2022/03/26 05:01:55;;;;;;;;;;;;;;;;;;1056769;28;658;-69
2022/03/26 05:02:45;;;;;;;;;;;;;;;;;;1056896;28;653;-69
2022/03/26 05:03:35;;;;;;;;;;;;;;;;;;1056640;28;641;-69
2022/03/26 05:04:26;;;;;;;;;;;;;;;;;;1056859;28;661;-69
2022/03/26 05:05:16;;;;;;;;;;;;;;;;;;1056630;28;693;-69
2022/03/26 05:06:07;;;;;;;;;;;;;;;;;;1056759;28;661;-69
2022/03/26 05:06:57;;;;;;;;;;;;;;;;;;1056834;28;705;-69
2022/03/26 05:07:48;;;;;;;;;;;;;;;;;;1056758;28;680;-68
2022/03/26 05:08:38;;;;;;;;;;;;;;;;;;1052638;28;629;-69
2022/03/26 05:09:28;;;;;;;;;;;;;;;;;;1055697;28;979;-69
2022/03/26 05:10:19;;;;;;;;;;;;;;;;;;1057133;28;669;-69
2022/03/26 05:11:09;;;;;;;;;;;;;;;;;;1053109;28;846;-70
2022/03/26 05:12:00;;;;;;;;;;;;;;;;;;1055966;28;665;-70
2022/03/26 05:12:50;;;;;;;;;;;;;;;;;;1053413;28;628;-70
2022/03/26 05:13:40;;;;;;;;;;;;;;;;;;1048566;28;617;-70
2022/03/26 05:14:31;;;;;;;;;;;;;;;;;;1052518;28;638;-69
2022/03/26 05:15:21;;;;;;;;;;;;;;;;;;1053118;28;647;-67
2022/03/26 05:16:12;;;;;;;;;;;;;;;;;;1053620;28;676;-69
2022/03/26 05:17:02;;;;;;;;;;;;;;;;;;1053611;28;626;-70
2022/03/26 05:17:53;;;;;;;;;;;;;;;;;;1053641;28;688;-71
2022/03/26 05:18:43;;;;;;;;;;;;;;;;;;1056378;28;802;-69
2022/03/26 05:19:34;;;;;;;;;;;;;;;;;;1056913;28;723;-69
2022/03/26 05:20:24;;;;;;;;;;;;;;;;;;1053088;28;648;-70
2022/03/26 05:21:15;;;;;;;;;;;;;;;;;;1059765;27;1165;-69
2022/03/26 05:22:05;;;;;;;;;;;;;;;;;;1052775;28;1169;-69
2022/03/26 05:22:56;;;;;;;;;;;;;;;;;;1052257;28;1070;-69
2022/03/26 05:23:46;;;;;;;;;;;;;;;;;;1054507;28;1066;-69
2022/03/26 05:24:37;;;;;;;;;;;;;;;;;;1056132;28;1074;-69
2022/03/26 05:25:27;;;;;;;;;;;;;;;;;;1055123;28;1152;-68
2022/03/26 05:26:21;;;;;;;;;;;;;;;;;;1055895;28;1169;-67
2022/03/26 05:27:11;;;;;;;;;;;;;;;;;;1057038;28;1105;-69
2022/03/26 05:28:01;;;;;;;;;;;;;;;;;;1055156;28;1183;-70
2022/03/26 05:28:52;;;;;;;;;;;;;;;;;;1050458;28;1218;-69
2022/03/26 05:29:42;;;;;;;;;;;;;;;;;;1052773;28;1020;-70
2022/03/26 05:30:33;;;;;;;;;;;;;;;;;;1056197;28;1241;-70
2022/03/26 05:31:23;;;;;;;;;;;;;;;;;;1054583;28;1171;-69
2022/03/26 05:32:13;;;;;;;;;;;;;;;;;;1052502;28;1183;-68
2022/03/26 05:33:04;;;;;;;;;;;;;;;;;;1050976;28;1111;-68
2022/03/26 05:33:55;;;;;;;;;;;;;;;;;;1054834;28;1106;-69
2022/03/26 05:34:45;;;;;;;;;;;;;;;;;;1055769;28;1090;-69
2022/03/26 05:35:36;;;;;;;;;;;;;;;;;;1056078;28;693;-68
2022/03/26 05:36:26;;;;;;;;;;;;;;;;;;1056315;28;652;-68
2022/03/26 05:37:17;;;;;;;;;;;;;;;;;;1056026;28;709;-69
2022/03/26 05:38:08;;;;;;;;;;;;;;;;;;1056088;28;662;-67
2022/03/26 05:38:58;;;;;;;;;;;;;;;;;;1056273;28;637;-70
2022/03/26 05:39:48;;;;;;;;;;;;;;;;;;1056106;28;647;-70
2022/03/26 05:40:39;;;;;;;;;;;;;;;;;;1056654;28;697;-71
2022/03/26 05:41:29;;;;;;;;;;;;;;;;;;1051477;28;1067;-70
2022/03/26 05:42:20;;;;;;;;;;;;;;;;;;1050772;28;1086;-70
2022/03/26 05:43:10;;;;;;;;;;;;;;;;;;1049321;28;1082;-70
2022/03/26 05:44:01;;;;;;;;;;;;;;;;;;1054346;28;1173;-70
2022/03/26 05:44:51;;;;;;;;;;;;;;;;;;1053969;28;1082;-71
2022/03/26 05:45:41;;;;;;;;;;;;;;;;;;1055320;28;1162;-71
2022/03/26 05:46:32;;;;;;;;;;;;;;;;;;1054620;28;1152;-71
2022/03/26 05:47:23;;;;;;;;;;;;;;;;;;1055153;28;1989;-72
2022/03/26 05:48:14;;;;;;;;;;;;;;;;;;1054578;28;1082;-72
2022/03/26 05:49:04;;;;;;;;;;;;;;;;;;1055685;28;1145;-72
2022/03/26 05:49:55;;;;;;;;;;;;;;;;;;1055073;28;1094;-69
2022/03/26 05:50:46;;;;;;;;;;;;;;;;;;1055668;28;1153;-71
2022/03/26 05:51:36;;;;;;;;;;;;;;;;;;1054835;28;1094;-70
2022/03/26 05:52:27;;;;;;;;;;;;;;;;;;1055835;28;1090;-70
2022/03/26 05:53:17;;;;;;;;;;;;;;;;;;1054730;28;1201;-68
2022/03/26 05:54:08;;;;;;;;;;;;;;;;;;1056491;28;1093;-70
2022/03/26 05:54:58;;;;;;;;;;;;;;;;;;1054997;28;1146;-68
2022/03/26 05:55:48;;;;;;;;;;;;;;;;;;1055787;28;1162;-70